Boynton Beach, FL (33435)

9:06 PM EDT on August 31, 2015 (GMT -0400)
APRSWXNET | | Change Station
CLOSE
Current Station
Personal Weather Station
Location: Boynton Beach, FL
Elevation: 32 ft
Nearby Weather Stations

Elev 32 ft 26.53 °N, 80.07 °W | Updated 36 minutes ago

Mostly Cloudy
Mostly Cloudy
82 °F
Feels Like 88 °F
N
0
Wind Variable Wind from West
Gusts 2.0 mph

Today
High -- | Low -- °F
--% Chance of Precip.
Yesterday
High -- | Low -- °F
Precip. -- in
6:59 AM 7:41 PM
Waning Gibbous, 92% visible
Pressure 30.06 in
Visibility 10.0 miles
Clouds Few 2600 ft
Few 7500 ft
Scattered Clouds 25000 ft
Heat Index 88 °F
Dew Point 74 °F
Humidity 78%
Rainfall in
Snow Depth Not available.
UV 0 out of 12
Pollen .60 out of 12
Air Quality Not available.
Flu Activity Not available.
METAR KPBI 010053Z 00000KT 10SM FEW026 FEW075 SCT250 27/23 A3006 RMK AO2 SLP178 T02720228 $
Pressure 30.06 in
Visibility 10.0 miles
Clouds Few 2600 ft
Few 7500 ft
Scattered Clouds 25000 ft
Heat Index 88 °F
Dew Point 74 °F
Humidity 78%
Rainfall in
Snow Depth Not available.
UV 0 out of 12
Pollen .60 out of 12
Air Quality Not available.
Flu Activity Not available.
METAR KPBI 010053Z 00000KT 10SM FEW026 FEW075 SCT250 27/23 A3006 RMK AO2 SLP178 T02720228 $

10-Day Weather Forecast

×

Almanac

Astronomy

Aug. 31, 2015 Rise Set
Actual Time
Civil Twilight
Nautical Twilight
Astronomical Twilight
Moon
Length of Visible Light
Length of Day
Tomorrow will be .
, % of the Moon is Illuminated

Today's Extremes

State Highs State Lows

Community

WunderPhotos

Upload Photos

1,851,413 photos uploaded!

WunderBlogs® & News

Nearby

Air Quality

  Air Quality AQ Index Pollutant
Not available.

Snow Depth

Station Depth Elevation

Earthquake Activity

City Distance Mag. Time & Date
Minimum magnitude displayed is 2.5.

Coastal Water Temperatures

Place Temperature

Stations

Nearby Weather Stations

Station Location Temp. Windchill Dew Point Humidity Wind Precip. Elev Updated Type